createdAt,value
2022-08-28T00:01:34.478Z,99038.88
2022-08-28T00:04:02.475Z,99031.22
2022-08-28T00:06:30.328Z,99032.59
2022-08-28T00:08:59.009Z,99032.53
2022-08-28T00:11:28.160Z,99036.44
2022-08-28T00:13:56.796Z,99038.22
2022-08-28T00:16:24.867Z,99034.03
2022-08-28T00:18:54.444Z,99036.06
2022-08-28T00:21:22.267Z,99038.66
2022-08-28T00:23:50.097Z,99032.56
2022-08-28T00:26:43.912Z,99036.13
2022-08-28T00:29:12.161Z,99032.94
2022-08-28T00:31:40.424Z,99038.09
2022-08-28T00:34:09.192Z,99032.34
2022-08-28T00:36:38.616Z,99035.06
2022-08-28T00:39:07.748Z,99044.75
2022-08-28T00:41:38.833Z,99032.22
2022-08-28T00:44:17.307Z,99038.28
2022-08-28T00:46:47.659Z,99034.31
2022-08-28T00:49:17.771Z,99030.16
2022-08-28T00:52:08.580Z,99032.50
2022-08-28T00:54:54.438Z,99029.53
2022-08-28T00:57:31.587Z,99028.97
2022-08-28T01:00:01.606Z,99024.81
2022-08-28T01:02:29.740Z,99032.06
2022-08-28T01:04:57.684Z,99028.78
2022-08-28T01:07:25.679Z,99035.31
2022-08-28T01:09:55.680Z,99033.59
2022-08-28T01:12:25.960Z,99035.72
2022-08-28T01:15:00.104Z,99037.94
2022-08-28T01:17:34.179Z,99033.19
2022-08-28T01:20:06.768Z,99040.56
2022-08-28T01:22:38.009Z,99043.28
2022-08-28T01:25:13.258Z,99044.94
2022-08-28T01:27:42.414Z,99042.13
2022-08-28T01:30:12.475Z,99040.66
2022-08-28T01:32:43.017Z,99036.84
2022-08-28T01:35:14.881Z,99033.81
2022-08-28T01:37:43.730Z,99031.81
2022-08-28T01:40:17.701Z,99029.75
2022-08-28T01:42:46.000Z,99022.78
2022-08-28T01:45:17.778Z,99033.16
2022-08-28T01:47:46.589Z,99032.84
2022-08-28T01:50:18.152Z,99032.56
2022-08-28T01:52:46.013Z,99035.59
2022-08-28T01:55:15.301Z,99037.81
2022-08-28T01:57:51.418Z,99029.75
2022-08-28T02:00:20.275Z,99039.81
2022-08-28T02:02:48.622Z,99037.16
2022-08-28T02:05:16.426Z,99040.78
2022-08-28T02:07:44.895Z,99037.38
2022-08-28T02:10:12.935Z,99043.72
2022-08-28T02:12:43.326Z,99044.50
2022-08-28T02:15:11.914Z,99038.75
2022-08-28T02:17:39.890Z,99036.50
2022-08-28T02:20:09.376Z,99044.09
2022-08-28T02:22:37.569Z,99042.88
2022-08-28T02:25:07.304Z,99045.88
2022-08-28T02:27:35.658Z,99048.69
2022-08-28T02:30:05.797Z,99044.25
2022-08-28T02:32:33.689Z,99043.06
2022-08-28T02:35:01.895Z,99050.97
2022-08-28T02:37:29.773Z,99053.91
2022-08-28T02:39:59.129Z,99056.94
2022-08-28T02:42:28.535Z,99056.25
2022-08-28T02:44:56.333Z,99053.31
2022-08-28T02:47:25.984Z,99058.19
2022-08-28T02:49:53.810Z,99060.75
2022-08-28T02:52:22.480Z,99054.88
2022-08-28T02:54:50.359Z,99055.16
2022-08-28T02:57:18.177Z,99050.88
2022-08-28T02:59:47.743Z,99055.44
2022-08-28T03:02:15.590Z,99051.16
2022-08-28T03:04:44.794Z,99058.28
2022-08-28T03:07:13.729Z,99053.09
2022-08-28T03:09:43.628Z,99054.78
2022-08-28T03:12:13.223Z,99042.69
2022-08-28T03:14:42.436Z,99042.59
2022-08-28T03:17:10.391Z,99042.28
2022-08-28T03:19:38.246Z,99049.00
2022-08-28T03:22:07.410Z,99045.88
2022-08-28T03:24:34.242Z,99043.75
2022-08-28T03:27:02.060Z,99036.63
2022-08-28T03:29:29.944Z,99050.09
2022-08-28T03:31:58.171Z,99040.53
2022-08-28T03:34:25.947Z,99047.75
2022-08-28T03:36:53.798Z,99050.78
2022-08-28T03:39:23.107Z,99054.47
2022-08-28T03:41:51.562Z,99058.84
2022-08-28T03:44:19.371Z,99053.78
2022-08-28T03:46:47.157Z,99052.44
2022-08-28T03:49:15.185Z,99049.78
2022-08-28T03:51:45.034Z,99055.72
2022-08-28T03:54:12.864Z,99051.84
2022-08-28T03:56:43.293Z,99056.63
2022-08-28T03:59:10.976Z,99046.88
2022-08-28T04:01:39.017Z,99055.66
2022-08-28T04:04:07.121Z,99047.06
2022-08-28T04:06:36.171Z,99063.47
2022-08-28T04:09:04.553Z,99058.09
2022-08-28T04:11:32.789Z,99065.28
2022-08-28T04:14:01.954Z,99066.38
2022-08-28T04:16:29.913Z,99070.75
2022-08-28T04:18:59.391Z,99070.19
2022-08-28T04:21:28.054Z,99074.44
2022-08-28T04:23:56.567Z,99082.31
2022-08-28T04:26:26.506Z,99075.63
2022-08-28T04:28:55.983Z,99077.78
2022-08-28T04:31:32.290Z,99083.34
2022-08-28T04:34:01.450Z,99088.81
2022-08-28T04:36:30.104Z,99079.25
2022-08-28T04:38:58.549Z,99075.84
2022-08-28T04:41:27.638Z,99072.97
2022-08-28T04:43:57.630Z,99077.78
2022-08-28T04:46:30.931Z,99084.22
2022-08-28T04:48:59.483Z,99069.47
2022-08-28T04:51:27.729Z,99078.69
2022-08-28T04:53:55.524Z,99078.19
2022-08-28T04:56:23.349Z,99075.94
2022-08-28T04:58:51.255Z,99075.94
2022-08-28T05:01:21.907Z,99085.41
2022-08-28T05:03:55.193Z,99077.59
2022-08-28T05:06:23.125Z,99080.91
2022-08-28T05:08:51.064Z,99076.94
2022-08-28T05:11:24.571Z,99078.50
2022-08-28T05:14:03.662Z,99083.44
2022-08-28T05:16:31.493Z,99086.69
2022-08-28T05:19:02.261Z,99095.66
2022-08-28T05:21:30.167Z,99089.72
2022-08-28T05:23:59.198Z,99098.50
2022-08-28T05:26:29.709Z,99104.25
2022-08-28T05:28:59.486Z,99109.41
2022-08-28T05:31:29.165Z,99111.38
2022-08-28T05:33:57.117Z,99107.28
2022-08-28T05:36:32.361Z,99112.56
2022-08-28T05:39:02.166Z,99115.97
2022-08-28T05:41:31.567Z,99120.16
2022-08-28T05:44:00.712Z,99123.09
2022-08-28T05:46:29.424Z,99122.81
2022-08-28T05:48:59.609Z,99123.66
2022-08-28T05:51:29.356Z,99125.91
2022-08-28T05:53:58.350Z,99123.59
2022-08-28T05:56:29.599Z,99125.16
2022-08-28T05:58:57.697Z,99130.25
2022-08-28T06:01:28.556Z,99128.66
2022-08-28T06:03:58.938Z,99131.31
2022-08-28T06:06:29.995Z,99123.38
2022-08-28T06:08:59.328Z,99129.47
2022-08-28T06:11:30.433Z,99120.09
2022-08-28T06:13:59.637Z,99117.81
2022-08-28T06:16:29.581Z,99118.25
2022-08-28T06:18:57.799Z,99117.41
2022-08-28T06:21:26.076Z,99129.25
2022-08-28T06:23:55.280Z,99123.44
2022-08-28T06:26:23.366Z,99129.06
2022-08-28T06:28:51.276Z,99138.00
2022-08-28T06:31:24.301Z,99124.19
2022-08-28T06:33:54.558Z,99129.13
2022-08-28T06:36:22.895Z,99134.69
2022-08-28T06:38:51.118Z,99144.31
2022-08-28T06:41:20.377Z,99137.28
2022-08-28T06:43:48.971Z,99139.94
2022-08-28T06:46:19.379Z,99139.38
2022-08-28T06:48:47.067Z,99152.69
2022-08-28T06:51:15.214Z,99151.97
2022-08-28T06:53:45.132Z,99150.72
2022-08-28T06:56:18.396Z,99154.66
2022-08-28T06:58:58.705Z,99149.41
2022-08-28T07:01:30.111Z,99151.47
2022-08-28T07:04:02.278Z,99146.22
2022-08-28T07:06:34.088Z,99157.16
2022-08-28T07:09:02.296Z,99162.69
2022-08-28T07:11:32.590Z,99159.34
2022-08-28T07:14:02.176Z,99159.84
2022-08-28T07:16:32.947Z,99167.84
2022-08-28T07:19:03.704Z,99165.00
2022-08-28T07:21:32.677Z,99169.53
2022-08-28T07:24:05.524Z,99166.31
2022-08-28T07:26:33.593Z,99175.72
2022-08-28T07:29:10.934Z,99164.09
2022-08-28T07:31:41.199Z,99162.41
2022-08-28T07:34:10.590Z,99171.94
2022-08-28T07:36:38.886Z,99171.72
2022-08-28T07:39:07.476Z,99168.91
2022-08-28T07:41:39.097Z,99169.72
2022-08-28T07:44:28.740Z,99169.44
2022-08-28T07:46:57.959Z,99172.59
2022-08-28T07:49:26.458Z,99177.81
2022-08-28T07:51:54.643Z,99172.69
2022-08-28T07:54:23.076Z,99174.09
2022-08-28T07:56:52.638Z,99180.28
2022-08-28T07:59:22.099Z,99188.72
2022-08-28T08:01:51.854Z,99185.81
2022-08-28T08:04:21.041Z,99188.72
2022-08-28T08:06:50.073Z,99191.97
2022-08-28T08:09:22.222Z,99196.72
2022-08-28T08:11:50.367Z,99203.97
2022-08-28T08:14:19.157Z,99205.56
2022-08-28T08:16:49.267Z,99199.19
2022-08-28T08:19:19.068Z,99202.75
2022-08-28T08:21:53.214Z,99206.00
2022-08-28T08:24:26.065Z,99209.28
2022-08-28T08:26:59.484Z,99207.81
2022-08-28T08:29:29.763Z,99202.94
2022-08-28T08:32:04.920Z,99209.84
2022-08-28T08:34:33.428Z,99216.13
2022-08-28T08:37:01.636Z,99201.94
2022-08-28T08:39:31.787Z,99203.00
2022-08-28T08:42:05.704Z,99209.53
2022-08-28T08:44:40.367Z,99213.28
2022-08-28T08:47:15.170Z,99215.38
2022-08-28T08:49:50.356Z,99210.03
2022-08-28T08:52:35.094Z,99216.56
2022-08-28T08:55:07.694Z,99213.78
2022-08-28T09:02:57.549Z,99207.34
2022-08-28T09:06:30.363Z,99212.81
2022-08-28T09:09:20.466Z,99211.25
2022-08-28T09:11:57.026Z,99220.03
2022-08-28T09:14:37.210Z,99226.44
2022-08-28T09:17:06.880Z,99223.66
2022-08-28T09:19:36.717Z,99222.09
2022-08-28T09:22:04.665Z,99213.56
2022-08-28T09:24:36.849Z,99220.03
2022-08-28T09:27:11.087Z,99222.34
2022-08-28T09:29:43.583Z,99214.03
2022-08-28T09:32:23.270Z,99219.25
2022-08-28T09:35:07.709Z,99219.91
2022-08-28T09:37:37.343Z,99216.28
2022-08-28T09:40:25.311Z,99218.16
2022-08-28T09:43:23.939Z,99221.22
2022-08-28T09:45:59.262Z,99224.94
2022-08-28T09:48:34.631Z,99228.09
2022-08-28T09:51:06.213Z,99213.31
2022-08-28T09:53:37.571Z,99214.09
2022-08-28T09:56:12.754Z,99218.44
2022-08-28T09:58:44.491Z,99216.81
2022-08-28T10:01:27.542Z,99223.06
2022-08-28T10:04:09.826Z,99229.41
2022-08-28T10:06:40.064Z,99229.31
2022-08-28T10:09:23.870Z,99226.44
2022-08-28T10:11:59.033Z,99219.28
2022-08-28T10:14:41.262Z,99223.47
2022-08-28T10:17:18.910Z,99228.81
2022-08-28T10:19:59.326Z,99227.97
2022-08-28T10:22:40.814Z,99227.94
2022-08-28T10:25:20.978Z,99228.22
2022-08-28T10:27:53.890Z,99220.00
2022-08-28T10:30:24.272Z,99224.16
2022-08-28T10:33:09.965Z,99227.75
2022-08-28T10:35:50.699Z,99228.25
2022-08-28T10:38:32.009Z,99226.78
2022-08-28T10:41:04.150Z,99222.81
2022-08-28T10:43:36.665Z,99229.50
2022-08-28T10:46:11.458Z,99228.16
2022-08-28T10:48:47.525Z,99230.75
2022-08-28T10:51:34.943Z,99233.72
2022-08-28T10:54:09.431Z,99226.44
2022-08-28T10:56:42.020Z,99228.28
2022-08-28T10:59:09.843Z,99231.66
2022-08-28T11:01:41.416Z,99233.16
2022-08-28T11:04:23.544Z,99225.13
2022-08-28T11:06:56.845Z,99215.19
2022-08-28T11:09:34.060Z,99233.75
2022-08-28T11:12:03.955Z,99228.09
2022-08-28T11:14:35.584Z,99234.06
2022-08-28T11:17:40.942Z,99228.63
2022-08-28T11:20:15.341Z,99223.47
2022-08-28T11:22:48.049Z,99227.72
2022-08-28T11:25:26.543Z,99223.97
2022-08-28T11:28:16.239Z,99227.06
2022-08-28T11:30:45.810Z,99228.44
2022-08-28T11:33:37.710Z,99229.38
2022-08-28T11:36:09.896Z,99229.97
2022-08-28T11:39:04.592Z,99224.50
2022-08-28T11:41:36.381Z,99234.41
2022-08-28T11:44:28.256Z,99232.00
2022-08-28T11:47:52.096Z,99231.53
2022-08-28T11:50:24.953Z,99230.16
2022-08-28T11:53:13.632Z,99235.91
2022-08-28T11:56:10.427Z,99227.94
2022-08-28T11:58:48.792Z,99228.78
2022-08-28T12:01:28.444Z,99225.91
2022-08-28T12:03:59.433Z,99228.38
2022-08-28T12:06:47.937Z,99226.56
2022-08-28T12:09:38.402Z,99214.13
2022-08-28T12:12:09.698Z,99214.00
2022-08-28T12:15:10.392Z,99219.50
2022-08-28T12:17:50.449Z,99213.13
2022-08-28T12:20:30.997Z,99215.81
2022-08-28T12:23:00.650Z,99210.50
2022-08-28T12:25:36.245Z,99212.59
2022-08-28T12:28:16.701Z,99205.88
2022-08-28T12:30:55.275Z,99199.59
2022-08-28T12:33:33.014Z,99207.00
2022-08-28T12:36:03.706Z,99209.28
2022-08-28T12:38:33.889Z,99207.28
2022-08-28T12:41:03.852Z,99205.72
2022-08-28T12:43:40.919Z,99203.84
2022-08-28T12:46:28.076Z,99203.06
2022-08-28T12:48:58.661Z,99196.84
2022-08-28T12:51:28.288Z,99193.50
2022-08-28T12:53:58.575Z,99189.84
2022-08-28T12:56:30.032Z,99185.88
2022-08-28T12:59:27.106Z,99196.22
2022-08-28T13:02:03.555Z,99189.41
2022-08-28T13:04:35.587Z,99181.53
2022-08-28T13:07:10.529Z,99182.78
2022-08-28T13:09:44.034Z,99174.13
2022-08-28T13:12:20.762Z,99172.88
2022-08-28T13:14:50.834Z,99167.97
2022-08-28T13:17:39.759Z,99178.63
2022-08-28T13:20:08.883Z,99170.81
2022-08-28T13:22:41.673Z,99169.25
2022-08-28T13:25:22.636Z,99174.31
2022-08-28T13:27:58.134Z,99174.63
2022-08-28T13:30:29.664Z,99171.94
2022-08-28T13:33:01.654Z,99164.97
2022-08-28T13:35:40.462Z,99164.75
2022-08-28T13:38:12.451Z,99154.47
2022-08-28T13:40:58.055Z,99158.25
2022-08-28T13:43:28.352Z,99160.66
2022-08-28T13:45:56.166Z,99155.91
2022-08-28T13:48:28.339Z,99151.88
2022-08-28T13:51:05.194Z,99152.13
2022-08-28T13:53:38.528Z,99151.06
2022-08-28T13:56:06.797Z,99143.88
2022-08-28T13:58:34.780Z,99150.34
2022-08-28T14:01:03.131Z,99150.66
2022-08-28T14:03:38.351Z,99146.72
2022-08-28T14:06:09.221Z,99147.47
2022-08-28T14:08:37.062Z,99141.75
2022-08-28T14:11:04.982Z,99138.31
2022-08-28T14:13:32.756Z,99159.03
2022-08-28T14:16:00.653Z,99142.81
2022-08-28T14:18:28.992Z,99150.06
2022-08-28T14:20:58.106Z,99142.59
2022-08-28T14:23:25.917Z,99152.53
2022-08-28T14:25:53.740Z,99140.00
2022-08-28T14:28:21.592Z,99149.03
2022-08-28T14:30:51.380Z,99139.50
2022-08-28T14:33:20.705Z,99141.72
2022-08-28T14:35:49.862Z,99140.19
2022-08-28T14:38:19.084Z,99149.69
2022-08-28T14:40:46.898Z,99137.19
2022-08-28T14:43:15.730Z,99140.53
2022-08-28T14:45:45.614Z,99137.66
2022-08-28T14:48:14.385Z,99128.00
2022-08-28T14:50:43.152Z,99131.53
2022-08-28T14:53:11.581Z,99135.00
2022-08-28T14:55:42.132Z,99133.78
2022-08-28T14:58:09.940Z,99126.16
2022-08-28T15:00:42.137Z,99127.72
2022-08-28T15:03:10.725Z,99127.88
2022-08-28T15:05:39.253Z,99125.03
2022-08-28T15:08:08.349Z,99120.38
2022-08-28T15:10:38.462Z,99116.47
2022-08-28T15:13:09.162Z,99125.41
2022-08-28T15:15:39.287Z,99119.66
2022-08-28T15:18:07.979Z,99124.00
2022-08-28T15:20:39.529Z,99118.25
2022-08-28T15:23:07.370Z,99114.50
2022-08-28T15:25:35.469Z,99114.94
2022-08-28T15:28:03.778Z,99105.09
2022-08-28T15:30:33.356Z,99110.41
2022-08-28T15:33:01.159Z,99112.22
2022-08-28T15:35:29.118Z,99113.38
2022-08-28T15:37:57.152Z,99109.50
2022-08-28T15:40:43.316Z,99110.59
2022-08-28T15:43:12.156Z,99113.59
2022-08-28T15:45:43.209Z,99113.72
2022-08-28T15:48:13.409Z,99107.72
2022-08-28T15:50:42.863Z,99106.06
2022-08-28T15:53:13.095Z,99102.53
2022-08-28T15:55:42.373Z,99096.34
2022-08-28T15:58:14.195Z,99100.06
2022-08-28T16:00:45.291Z,99098.91
2022-08-28T16:03:14.328Z,99095.72
2022-08-28T16:05:43.159Z,99105.03
2022-08-28T16:08:13.453Z,99103.09
2022-08-28T16:10:42.382Z,99096.00
2022-08-28T16:13:12.426Z,99099.09
2022-08-28T16:15:41.245Z,99095.56
2022-08-28T16:18:13.093Z,99101.59
2022-08-28T16:20:45.355Z,99094.50
2022-08-28T16:23:14.863Z,99100.66
2022-08-28T16:25:43.528Z,99109.53
2022-08-28T16:28:15.203Z,99109.38
2022-08-28T16:30:46.013Z,99104.28
2022-08-28T16:33:20.312Z,99107.06
2022-08-28T16:35:56.274Z,99103.22
2022-08-28T16:38:26.173Z,99099.63
2022-08-28T16:40:54.112Z,99100.09
2022-08-28T16:43:21.908Z,99094.78
2022-08-28T16:45:50.994Z,99093.84
2022-08-28T16:48:20.464Z,99104.66
2022-08-28T16:50:48.302Z,99095.59
2022-08-28T16:53:17.063Z,99100.63
2022-08-28T16:55:54.994Z,99099.75
2022-08-28T16:58:23.155Z,99099.41
2022-08-28T17:00:52.828Z,99093.69
2022-08-28T17:03:26.482Z,99097.63
2022-08-28T17:05:56.759Z,99101.16
2022-08-28T17:08:24.671Z,99100.22
2022-08-28T17:10:52.741Z,99096.47
2022-08-28T17:13:20.555Z,99089.78
2022-08-28T17:15:48.430Z,99087.03
2022-08-28T17:18:16.301Z,99097.03
2022-08-28T17:21:02.893Z,99099.47
2022-08-28T17:23:31.189Z,99097.63
2022-08-28T17:26:08.696Z,99101.78
2022-08-28T17:28:36.674Z,99100.59
2022-08-28T17:31:04.593Z,99100.28
2022-08-28T17:33:32.511Z,99107.91
2022-08-28T17:36:01.710Z,99102.84
2022-08-28T17:38:30.126Z,99109.78
2022-08-28T17:40:58.379Z,99101.75
2022-08-28T17:43:26.192Z,99113.53
2022-08-28T17:45:54.013Z,99098.25
2022-08-28T17:48:21.751Z,99101.19
2022-08-28T17:50:49.576Z,99106.94
2022-08-28T17:53:18.802Z,99111.41
2022-08-28T17:55:47.062Z,99112.53
2022-08-28T17:58:15.006Z,99120.84
2022-08-28T18:00:43.892Z,99118.63
2022-08-28T18:03:11.777Z,99118.66
2022-08-28T18:05:41.163Z,99124.09
2022-08-28T18:08:09.509Z,99120.50
2022-08-28T18:10:38.908Z,99123.31
2022-08-28T18:13:07.390Z,99129.56
2022-08-28T18:15:36.858Z,99132.91
2022-08-28T18:18:06.780Z,99131.38
2022-08-28T18:20:37.912Z,99140.19
2022-08-28T18:23:06.076Z,99135.78
2022-08-28T18:25:51.007Z,99145.13
2022-08-28T18:28:22.739Z,99146.41
2022-08-28T18:30:52.746Z,99156.78
2022-08-28T18:33:23.172Z,99151.59
2022-08-28T18:35:53.722Z,99164.28
2022-08-28T18:38:28.790Z,99166.03
2022-08-28T18:40:57.366Z,99169.66
2022-08-28T18:43:26.788Z,99165.16
2022-08-28T18:45:55.209Z,99180.69
2022-08-28T18:48:24.267Z,99180.41
2022-08-28T18:50:52.452Z,99187.13
2022-08-28T18:53:22.726Z,99200.78
2022-08-28T18:55:51.154Z,99191.56
2022-08-28T18:58:22.276Z,99194.56
2022-08-28T19:00:52.693Z,99197.56
2022-08-28T19:03:24.220Z,99203.59
2022-08-28T19:05:52.177Z,99208.19
2022-08-28T19:08:20.132Z,99215.09
2022-08-28T19:10:48.163Z,99211.28
2022-08-28T19:13:16.079Z,99211.78
2022-08-28T19:15:44.042Z,99214.81
2022-08-28T19:18:13.521Z,99222.81
2022-08-28T19:20:41.503Z,99218.59
2022-08-28T19:23:09.314Z,99224.28
2022-08-28T19:25:37.205Z,99230.00
2022-08-28T19:28:05.201Z,99229.63
2022-08-28T19:30:35.724Z,99238.84
2022-08-28T19:33:05.491Z,99233.03
2022-08-28T19:35:35.903Z,99234.19
2022-08-28T19:38:03.603Z,99238.84
2022-08-28T19:40:31.728Z,99244.63
2022-08-28T19:43:00.891Z,99248.28
2022-08-28T19:45:30.216Z,99253.47
2022-08-28T19:47:58.754Z,99251.91
2022-08-28T19:50:27.190Z,99253.47
2022-08-28T19:52:56.382Z,99251.84
2022-08-28T19:55:26.055Z,99259.56
2022-08-28T19:57:54.800Z,99266.78
2022-08-28T20:00:24.817Z,99264.88
2022-08-28T20:02:53.436Z,99272.50
2022-08-28T20:05:22.501Z,99275.25
2022-08-28T20:07:51.456Z,99271.75
2022-08-28T20:10:21.374Z,99276.94
2022-08-28T20:12:49.373Z,99281.84
2022-08-28T20:15:19.647Z,99287.28
2022-08-28T20:17:50.195Z,99290.13
2022-08-28T20:20:18.868Z,99286.69
2022-08-28T20:22:46.723Z,99293.84
2022-08-28T20:25:18.184Z,99295.19
2022-08-28T20:27:47.216Z,99291.41
2022-08-28T20:30:15.298Z,99293.53
2022-08-28T20:32:43.377Z,99283.06
2022-08-28T20:35:13.198Z,99293.34
2022-08-28T20:37:44.951Z,99290.69
2022-08-28T20:40:15.911Z,99290.78
2022-08-28T20:42:44.026Z,99287.88
2022-08-28T20:45:15.082Z,99295.81
2022-08-28T20:47:42.964Z,99290.63
2022-08-28T20:50:11.745Z,99291.59
2022-08-28T20:52:40.016Z,99296.78
2022-08-28T20:55:09.247Z,99299.63
2022-08-28T20:57:37.571Z,99302.66
2022-08-28T21:00:06.497Z,99297.88
2022-08-28T21:02:35.989Z,99293.97
2022-08-28T21:05:04.927Z,99294.03
2022-08-28T21:07:33.790Z,99294.81
2022-08-28T21:10:05.478Z,99299.69
2022-08-28T21:12:35.916Z,99307.97
2022-08-28T21:15:04.465Z,99311.66
2022-08-28T21:17:32.301Z,99310.75
2022-08-28T21:20:04.391Z,99311.81
2022-08-28T21:22:32.963Z,99316.84
2022-08-28T21:25:04.184Z,99323.59
2022-08-28T21:27:32.797Z,99325.06
2022-08-28T21:30:01.531Z,99329.25
2022-08-28T21:32:30.516Z,99324.13
2022-08-28T21:35:00.699Z,99320.00
2022-08-28T21:37:31.124Z,99327.94
2022-08-28T21:39:59.460Z,99318.47
2022-08-28T21:42:27.851Z,99319.91
2022-08-28T21:44:55.669Z,99315.56
2022-08-28T21:47:24.639Z,99324.03
2022-08-28T21:49:53.287Z,99325.63
2022-08-28T21:52:22.534Z,99332.00
2022-08-28T21:54:56.861Z,99327.78
2022-08-28T21:57:24.715Z,99326.41
2022-08-28T21:59:52.535Z,99328.56
2022-08-28T22:02:20.739Z,99331.56
2022-08-28T22:04:49.300Z,99328.97
2022-08-28T22:07:17.434Z,99332.53
2022-08-28T22:09:45.264Z,99338.78
2022-08-28T22:12:14.526Z,99336.47
2022-08-28T22:14:42.366Z,99332.97
2022-08-28T22:17:11.537Z,99337.38
2022-08-28T22:19:40.523Z,99338.09
2022-08-28T22:22:37.477Z,99336.84
2022-08-28T22:25:06.145Z,99342.81
2022-08-28T22:27:35.550Z,99338.78
2022-08-28T22:30:03.542Z,99339.56
2022-08-28T22:32:31.358Z,99335.81
2022-08-28T22:34:59.166Z,99344.75
2022-08-28T22:37:26.947Z,99340.50
2022-08-28T22:39:54.785Z,99343.97
2022-08-28T22:42:23.052Z,99345.84
2022-08-28T22:44:52.200Z,99343.78
2022-08-28T22:47:20.073Z,99347.41
2022-08-28T22:49:47.966Z,99344.41
2022-08-28T22:52:16.384Z,99348.53
2022-08-28T22:54:44.274Z,99348.69
2022-08-28T22:57:12.125Z,99342.88
2022-08-28T22:59:39.942Z,99353.03
2022-08-28T23:02:09.174Z,99346.94
2022-08-28T23:04:37.281Z,99352.25
2022-08-28T23:07:05.625Z,99351.31
2022-08-28T23:09:36.022Z,99343.03
2022-08-28T23:12:04.107Z,99350.38
2022-08-28T23:14:32.004Z,99350.56
2022-08-28T23:17:00.018Z,99352.72
2022-08-28T23:19:30.481Z,99350.38
2022-08-28T23:21:58.295Z,99352.41
2022-08-28T23:24:26.464Z,99350.53
2022-08-28T23:26:54.228Z,99343.31
2022-08-28T23:29:22.032Z,99344.22
2022-08-28T23:31:50.107Z,99336.88
2022-08-28T23:34:17.944Z,99347.06
2022-08-28T23:36:47.076Z,99353.31
2022-08-28T23:39:15.217Z,99354.28
2022-08-28T23:41:43.350Z,99344.38
2022-08-28T23:44:11.245Z,99351.25
2022-08-28T23:46:41.338Z,99345.28
2022-08-28T23:49:11.020Z,99345.91
2022-08-28T23:51:38.965Z,99343.88
2022-08-28T23:54:09.099Z,99341.38
2022-08-28T23:56:37.942Z,99343.38
2022-08-28T23:59:06.979Z,99351.53
